Terminal Aerodrome Forecast
Issued by NWS Bismarck, ND

Home | Current Version | Previous Version | Text Only | Print | Product List | Glossary Off
Versions: 1 2 3 4 5 6 7 8 9 10 11 12 13 14 15

186
FTUS43 KBIS 061126
TAFISN
TAF
KISN 061126Z 0612/0712 24010KT P6SM BKN110 WS020/28040KT
     FM061400 24010KT P6SM BKN120 WS020/28050KT
     FM061900 26021G30KT P6SM BKN120
     FM062200 27028G38KT P6SM BKN130
     FM070500 30027G37KT P6SM BKN150=

USA.gov is the U.S. government's official web portal to all federal, state and local government web resources and services.